Historique des mesures à Cassis (13260), France
Quotidien Résumé Juin 10, 2021 Unités:  Métrique    US   Métrique/US
Quotidien Hebdomadaire Mensuel Annuel
  Maximum: Minimum: Moyenne:
Température: 31.3 °C 21.7 °C 26.9 °C
Point de rosée: 18.2 °C 11.4 °C 14.1 °C
Humidité: 53% 41% 46%
Vitesse du vent: 9.7km/h 0km/h 3.2km/h
Rafales: 13.3km/h - -
Vent- - SW
Pression: 1014.6 hPa 1011.8 hPa -
Précipitations: 0.0 mm    
Historical Graphs
 
 
Mesures pour : Juin 10, 2021
Heure Temperature Point de rosée Pression Vent Vitesse du vent Rafales Humidité Pluie (par heure)
00:11 24.9 °C 11.4 °C 1014.1 hPa NW 8.3 km/h 11.9 km/h 43% 0.0 mm
01:11 24.9 °C 11.4 °C 1014.5 hPa Calm   5 km/h 43% 0.0 mm
02:11 24.1 °C 12.1 °C 1014.4 hPa Calm     47% 0.0 mm
03:11 23.1 °C 12.4 °C 1014.6 hPa Calm   2.5 km/h 51% 0.0 mm
04:11 22.8 °C 12.7 °C 1013.5 hPa NW 5.8 km/h 5.8 km/h 53% 0.0 mm
05:11 22.8 °C 12.1 °C 1013.4 hPa Calm     51% 0.0 mm
06:11 21.7 °C 11.7 °C 1013.5 hPa NW 1.4 km/h 2.2 km/h 53% 0.0 mm
07:11 22.1 °C 12 °C 1013.4 hPa NW 4.3 km/h 5 km/h 53% 0.0 mm
08:11 26.1 °C 13.2 °C 1013.2 hPa Calm   5 km/h 45% 0.0 mm
09:11 27.5 °C 13.4 °C 1013.5 hPa WNW 3.2 km/h 7.2 km/h 42% 0.0 mm
10:11 26.6 °C 14 °C 1013.6 hPa WNW 5.8 km/h 7.9 km/h 46% 0.0 mm
11:11 29.3 °C 15.8 °C 1013.6 hPa Calm   8.6 km/h 44% 0.0 mm
12:11 31 °C 16.3 °C 1013.6 hPa ESE 4 km/h 12.2 km/h 41% 0.0 mm
13:11 31.3 °C 16.5 °C 1013.8 hPa SE 3.6 km/h 13.3 km/h 41% 0.0 mm
14:11 30.8 °C 18.2 °C 1013.6 hPa ESE 5.8 km/h 11.5 km/h 47% 0.0 mm
15:11 31.1 °C 16.7 °C 1013.1 hPa SE 3.6 km/h 7.2 km/h 42% 0.0 mm
16:11 31.1 °C 17.4 °C 1012.8 hPa ESE 4.3 km/h 7.6 km/h 44% 0.0 mm
17:11 30.4 °C 17.1 °C 1012.6 hPa SE 5.8 km/h 10.1 km/h 45% 0.0 mm
18:11 29.4 °C 16.6 °C 1013.5 hPa ESE 5 km/h 6.5 km/h 46% 0.0 mm
19:11 28.3 °C 14.5 °C 1013.2 hPa Calm   3.2 km/h 43% 0.0 mm
20:11 27.9 °C 14.5 °C 1012.4 hPa Calm   4 km/h 44% 0.0 mm
21:11 26.7 °C 13.1 °C 1011.8 hPa NNW 9.7 km/h 13 km/h 43% 0.0 mm
22:11 26.1 °C 12.9 °C 1012.8 hPa West 6.8 km/h 7.2 km/h 44% 0.0 mm
23:11 25.3 °C 12.5 °C 1012.9 hPa Calm     45% 0.0 mm
Observations météo à CASSIS
WU-History script by Weather Underground - 2 mb